Warning: Javascript must be enabled to use all the features on this page!


Page Loading - Please Wait...

Click to hideNews Bulletins

Peak Streamflow for the Nation

USGS 01596500 SAVAGE RIVER NEAR BARTON, MD

Garrett County, Maryland
Hydrologic Unit Code 02070002
Latitude  39°34'12.2", Longitude  79°06'07.0" NAD83
Drainage area 49.1  square miles
Gage datum 1,603.44 feet above NAVD88
Output formats
Table
Graph
Tab-separated file
peakfq (watstore) format
Reselect output format
Water
Year
Date Gage
Height
(feet)
Stream-
flow
(cfs)
1949 1948-12-16 3.49 819
1950 1950-09-21 5.00 2,630
1951 1951-06-13 4.43 1,860
1952 1952-03-11 4.70 2,270
1953 1953-03-24 3.73 1,110
1954 1954-03-01 4.52 2,030
1955 1954-10-15 8.45 7,510
1956 1956-08-06 4.49 1,920
1957 1957-02-10 3.72 1,140
1958 1958-05-05 4.202 1,660
1959 1959-02-10 3.49 942
1960 1960-05-08 4.97 2,500
1961 1961-02-25 5.18 2,770
1962 1962-03-21 4.03 1,450
1963 1963-03-20 4.08 1,480
1964 1964-04-29 4.88 2,390
1965 1965-03-29 3.362 813
1966 1966-02-13 4.26 1,670
1967 1967-03-07 4.21 1,610
1968 1968-05-24 4.12 1,520
1969 1969-03-25 2.80 415
1970 1970-04-02 4.74 2,220
1971 1970-12-23 3.812 1,210
1972 1972-03-13 4.50 1,930
1973 1973-04-27 3.81 1,210
1974 1973-12-26 4.18 1,580
1975 1975-04-25 4.33 1,750
1976 1976-01-01 3.51 937
1977 1977-02-24 3.96 1,360
1978 1978-03-21 3.582 994
1979 1979-03-05 4.01 1,350
1980 1980-04-09 6.13 3,700
1981 1981-04-13 4.222 1,530
1982 1982-03-13 3.552 987
1983 1983-04-24 3.87 1,230
1984 1984-04-05 4.64 1,930
1985 1985-02-24 3.782 1,160
1986 1985-11-05 6.57 4,320
1987 1987-04-17 3.51 957
1988 1988-01-20 3.62 1,040
1989 1989-05-10 3.58 1,010
1990 1990-05-26 3.582 1,010
1991 1990-10-23 3.72 1,090
1992 1992-02-26 3.33 797
1993 1993-04-16 4.60 1,890
1994 1993-11-28 3.83 1,190
1995 1995-06-27 4.72 2,010
1996 1996-09-06 7.97 6,620
1997 1996-12-02 4.07 1,380
1998 1998-05-05 4.09 1,390
1999 1999-01-24 3.35 819
2000 2000-02-19 5.28 2,610
2001 2001-06-07 4.142 1,440
2002 2002-03-20 3.58 986
2003 2003-09-19 5.52 2,900
2004 2004-09-08 4.86 2,130
2005 2005-03-28 5.05 2,340
2006 2006-05-15 4.31 1,590
2007 2007-04-15 3.79 1,150
2008 2008-03-05 4.55 1,820
2009 2009-05-04 4.46 1,730
2010 2010-03-13 5.85 3,520
2011 2011-03-10 5.74 3,370
2012 2012-02-29 3.80 1,230
2013 2013-05-08 4.39 1,800
2014 2014-05-16 4.83 2,260
2015 2015-06-21 4.092 1,520
2016 2016-06-02 3.46 989
2017 2017-08-05 4.43 1,830
2018 2018-09-09 6.00 3,790
2019 2018-12-15 4.392 1,640
2020 2020-04-30 4.21 1,570
?
  Peak Gage-Height Qualification Codes.